.
WxDataArchive / Data Records for 2007-11-13
2007-11-12 November 2007 2007-11-14

Data Records for Tuesday, 13 November 2007

Time	Temp	Chill	HIndex	Humid	Dewpt	 Wind 	HiWind	WindDir	Rain 	Barom 
-----	----	-----	------	-----	-----	------	------	-------	-----	----- 
00:00	48.5	48.5	48.5	85	44.2	0	0	---	0.00	29.983 
00:05	48.3	48.3	48.3	85	44.0	0	1	0	0.00	29.984 
00:10	48.3	48.3	48.3	84	43.7	0	1	0	0.00	29.983 
00:15	48.2	48.2	48.2	83	43.3	0	1	0	0.00	29.983 
00:20	48.0	48.0	48.0	84	43.4	0	0	---	0.00	29.984 
00:25	47.9	47.9	47.9	84	43.3	0	0	---	0.00	29.986 
00:30	47.7	47.7	47.7	84	43.1	0	0	---	0.00	29.986 
00:35	47.7	47.7	47.7	84	43.1	0	1	0	0.00	29.987 
00:40	47.7	47.7	47.7	84	43.1	0	0	---	0.00	29.989 
00:45	47.9	47.9	47.9	83	43.0	0	0	---	0.00	29.988 
00:50	47.9	47.9	47.9	83	43.0	0	1	0	0.00	29.990 
00:55	47.9	47.9	47.9	82	42.7	0	1	0	0.00	29.990 
01:00	47.9	47.9	47.9	82	42.7	0	0	---	0.00	29.991 
01:05	47.9	47.9	47.9	82	42.7	0	1	0	0.00	29.989 
01:10	47.7	47.7	47.7	83	42.8	0	0	---	0.00	29.989 
01:15	47.6	47.6	47.6	82	42.4	0	0	---	0.00	29.996 
01:20	47.7	47.7	47.7	81	42.2	0	1	0	0.00	29.992 
01:25	47.7	47.7	47.7	81	42.2	0	1	0	0.00	29.999 
01:30	47.7	47.7	47.7	81	42.2	0	0	---	0.00	29.994 
01:35	47.7	47.7	47.7	82	42.5	0	0	---	0.00	29.992 
01:40	47.6	47.6	47.6	82	42.4	0	0	---	0.00	29.993 
01:45	47.4	47.4	47.4	82	42.2	0	0	---	0.00	29.998 
01:50	47.4	47.4	47.4	82	42.2	0	1	0	0.00	30.002 
01:55	47.4	47.4	47.4	81	41.9	0	0	---	0.00	30.004 
02:00	47.4	47.4	47.4	82	42.2	0	0	---	0.00	30.005 
02:05	47.4	47.4	47.4	83	42.5	0	0	---	0.00	30.003 
02:10	47.3	47.3	47.3	84	42.7	0	0	---	0.00	30.003 
02:15	47.1	47.1	47.1	84	42.5	0	0	---	0.00	30.003 
02:20	47.0	47.0	47.0	84	42.4	0	0	---	0.00	30.006 
02:25	46.8	46.8	46.8	84	42.2	0	0	---	0.00	30.010 
02:30	46.7	46.7	46.7	84	42.1	0	0	---	0.00	30.011 
02:35	46.8	46.8	46.8	84	42.2	0	0	---	0.00	30.018 
02:40	46.8	46.8	46.8	84	42.2	0	0	---	0.00	30.019 
02:45	46.7	46.7	46.7	84	42.1	0	0	---	0.00	30.018 
02:50	46.7	46.7	46.7	84	42.1	0	0	---	0.00	30.013 
02:55	46.5	46.5	46.5	84	41.9	0	0	---	0.00	30.010 
03:00	46.5	46.5	46.5	84	41.9	0	0	---	0.00	30.009 
03:05	46.5	46.5	46.5	84	41.9	0	0	---	0.00	30.011 
03:10	46.4	46.4	46.4	84	41.8	0	0	---	0.00	30.006 
03:15	46.4	46.4	46.4	84	41.8	0	0	---	0.00	30.004 
03:20	46.2	46.2	46.2	84	41.6	0	0	---	0.00	29.998 
03:25	46.1	46.1	46.1	84	41.5	0	0	---	0.00	29.995 
03:30	45.7	45.7	45.7	85	41.5	0	0	---	0.00	30.004 
03:35	45.2	45.2	45.2	86	41.3	0	0	---	0.00	30.003 
03:40	45.1	45.1	45.1	87	41.5	0	0	---	0.00	30.001 
03:45	44.8	44.8	44.8	87	41.2	0	0	---	0.00	30.000 
03:50	44.5	44.5	44.5	87	40.9	0	0	---	0.00	29.999 
03:55	44.3	44.3	44.3	88	41.0	0	0	---	0.00	29.997 
04:00	44.2	44.2	44.2	88	40.9	0	0	---	0.00	29.993 
04:05	43.9	43.9	43.9	89	40.9	0	0	---	0.00	29.996 
04:10	43.8	43.8	43.8	90	41.1	0	0	---	0.00	29.995 
04:15	43.5	43.5	43.5	90	40.8	0	0	---	0.00	29.994 
04:20	43.3	43.3	43.3	90	40.6	0	0	---	0.00	29.995 
04:25	43.1	43.1	43.1	91	40.7	0	0	---	0.00	29.995 
04:30	42.8	42.8	42.8	91	40.4	0	0	---	0.00	29.999 
04:35	42.6	42.6	42.6	91	40.2	0	0	---	0.00	30.000 
04:40	42.3	42.3	42.3	92	40.1	0	0	---	0.00	30.001 
04:45	42.2	42.2	42.2	92	40.0	0	0	---	0.00	30.000 
04:50	41.9	41.9	41.9	92	39.7	0	0	---	0.00	30.004 
04:55	41.8	41.8	41.8	92	39.6	0	0	---	0.00	30.007 
05:00	41.5	41.5	41.5	92	39.4	0	0	---	0.00	30.010 
05:05	41.3	41.3	41.3	93	39.4	0	0	---	0.00	30.013 
05:10	41.1	41.1	41.1	93	39.2	0	0	---	0.00	30.015 
05:15	40.9	40.9	40.9	93	39.0	0	0	---	0.00	30.014 
05:20	40.6	40.6	40.6	93	38.7	0	0	---	0.00	30.013 
05:25	40.5	40.5	40.5	93	38.6	0	0	---	0.00	30.013 
05:30	40.2	40.2	40.2	93	38.3	0	0	---	0.00	30.015 
05:35	40.1	40.1	40.1	93	38.2	0	0	---	0.00	30.016 
05:40	39.9	39.9	39.9	93	38.0	0	0	---	0.00	30.018 
05:45	39.8	39.8	39.8	94	38.2	0	0	---	0.00	30.019 
05:50	39.5	39.5	39.5	94	37.9	0	0	---	0.00	30.017 
05:55	39.3	39.3	39.3	94	37.7	0	0	---	0.00	30.015 
06:00	39.2	39.2	39.2	94	37.6	0	0	---	0.00	30.015 
06:05	38.9	38.9	38.9	94	37.3	0	0	---	0.00	30.017 
06:10	38.8	38.8	38.8	94	37.2	0	0	---	0.00	30.014 
06:15	38.5	38.5	38.5	94	36.9	0	0	---	0.00	30.016 
06:20	38.3	38.3	38.3	94	36.7	0	0	---	0.00	30.016 
06:25	38.2	38.2	38.2	94	36.6	0	0	---	0.00	30.016 
06:30	37.9	37.9	37.9	94	36.3	0	0	---	0.00	30.017 
06:35	37.8	37.8	37.8	94	36.2	0	0	---	0.00	30.016 
06:40	37.5	37.5	37.5	94	35.9	0	0	---	0.00	30.016 
06:45	37.2	37.2	37.2	94	35.6	0	0	---	0.00	30.018 
06:50	37.0	37.0	37.0	94	35.4	0	0	---	0.00	30.020 
06:55	36.9	36.9	36.9	94	35.3	0	0	---	0.00	30.021 
07:00	36.8	36.8	36.8	94	35.2	0	0	---	0.00	30.025 
07:05	36.6	36.6	36.6	94	35.0	0	0	---	0.00	30.026 
07:10	36.5	36.5	36.5	94	34.9	0	0	---	0.00	30.025 
07:15	36.3	36.3	36.3	94	34.7	0	0	---	0.00	30.022 
07:20	36.2	36.2	36.2	94	34.6	0	0	---	0.00	30.020 
07:25	36.0	36.0	36.0	94	34.4	0	0	---	0.00	30.020 
07:30	35.9	35.9	35.9	94	34.3	0	0	---	0.00	30.021 
07:35	35.8	35.8	35.8	94	34.2	0	0	---	0.00	30.022 
07:40	35.6	35.6	35.6	94	34.0	0	0	---	0.00	30.029 
07:45	35.5	35.5	35.5	95	34.2	0	0	---	0.00	30.031 
07:50	35.5	35.5	35.5	95	34.2	0	0	---	0.00	30.032 
07:55	35.3	35.3	35.3	95	34.0	0	0	---	0.00	30.034 
08:00	35.5	35.5	35.5	95	34.2	0	0	---	0.00	30.031 
08:05	35.9	35.9	35.9	95	34.6	0	0	---	0.00	30.035 
08:10	36.3	36.3	36.3	95	35.0	0	0	---	0.00	30.038 
08:15	36.8	36.8	36.8	96	35.8	0	0	---	0.00	30.040 
08:20	37.3	37.3	37.3	96	36.3	0	0	---	0.00	30.042 
08:25	38.0	38.0	38.0	96	37.0	0	0	---	0.00	30.048 
08:30	38.6	38.6	38.6	96	37.6	0	0	---	0.00	30.047 
08:35	39.1	39.1	39.1	96	38.1	0	0	---	0.00	30.045 
08:40	39.6	39.6	39.6	96	38.6	0	0	---	0.00	30.039 
08:45	40.1	40.1	40.1	96	39.1	0	0	---	0.00	30.037 
08:50	40.5	40.5	40.5	96	39.5	0	0	---	0.00	30.036 
08:55	40.9	40.9	40.9	96	39.8	0	0	---	0.00	30.037 
09:00	41.6	41.6	41.6	96	40.5	0	0	---	0.00	30.038 
09:05	42.8	42.8	42.8	97	42.0	0	1	0	0.00	30.037 
09:10	43.8	43.8	43.8	97	43.0	0	2	0	0.00	30.035 
09:15	44.5	44.5	44.5	96	43.4	0	2	0	0.00	30.035 
09:20	45.1	45.1	45.1	93	43.2	0	1	0	0.00	30.034 
09:25	45.7	45.7	45.7	90	42.9	0	2	0	0.00	30.034 
09:30	46.0	46.0	46.0	87	42.4	0	3	22	0.00	30.036 
09:35	46.2	46.2	46.2	84	41.6	1	2	90	0.00	30.035 
09:40	46.5	46.5	46.5	83	41.6	1	3	90	0.00	30.033 
09:45	46.7	46.7	46.7	82	41.5	1	2	90	0.00	30.029 
09:50	47.0	47.0	47.0	81	41.5	1	4	90	0.00	30.023 
09:55	47.4	47.4	47.4	80	41.5	1	3	90	0.00	30.016 
10:00	47.7	47.7	47.7	80	41.8	1	4	90	0.00	30.015 
10:05	47.9	47.9	47.9	79	41.7	1	4	90	0.00	30.018 
10:10	48.2	48.2	48.2	78	41.7	2	4	112	0.00	30.027 
10:15	48.6	48.6	48.6	79	42.4	1	4	90	0.00	30.028 
10:20	48.9	48.9	48.9	77	42.0	1	4	90	0.00	30.025 
10:25	49.2	49.2	49.2	77	42.3	2	5	90	0.00	30.024 
10:30	49.5	49.5	49.5	76	42.3	0	3	112	0.00	30.021 
10:35	50.1	50.1	50.1	76	42.8	2	4	112	0.00	30.019 
10:40	50.2	50.2	50.2	75	42.6	1	5	90	0.00	30.014 
10:45	50.5	50.5	50.5	75	42.9	2	4	90	0.00	30.013 
10:50	50.5	50.5	50.5	76	43.2	1	5	112	0.00	30.011 
10:55	50.8	50.8	50.8	77	43.9	2	9	112	0.00	30.003 
11:00	51.1	51.1	51.1	76	43.8	1	4	90	0.00	30.006 
11:05	51.6	51.6	51.6	76	44.3	1	5	90	0.00	30.011 
11:10	51.7	51.7	51.7	75	44.0	1	4	112	0.00	30.012 
11:15	51.7	51.7	51.7	76	44.4	2	4	90	0.00	30.012 
11:20	51.7	51.7	51.7	76	44.4	2	5	112	0.00	30.012 
11:25	52.0	52.0	52.0	77	45.0	1	5	90	0.00	30.012 
11:30	52.3	52.3	52.3	76	45.0	1	3	135	0.00	30.012 
11:35	52.5	52.5	52.5	75	44.8	0	3	135	0.00	30.010 
11:40	52.6	52.6	52.6	75	44.9	1	4	90	0.00	30.009 
11:45	52.8	52.8	52.8	76	45.4	1	3	112	0.00	30.008 
11:50	52.8	52.8	52.8	75	45.1	1	3	112	0.00	30.007 
11:55	52.9	52.9	52.9	76	45.5	1	3	112	0.00	30.005 
12:00	53.2	53.2	53.2	76	45.8	0	3	112	0.00	30.006 
12:05	53.5	53.5	53.5	76	46.1	1	3	112	0.00	30.003 
12:10	53.5	53.5	53.5	75	45.8	1	4	90	0.00	29.996 
12:15	53.6	53.6	53.6	75	45.9	1	4	112	0.00	29.995 
12:20	53.6	53.6	53.6	77	46.6	1	3	112	0.00	29.993 
12:25	53.8	53.8	53.8	77	46.8	1	4	68	0.00	29.985 
12:30	53.9	53.9	53.9	77	46.9	2	4	90	0.00	29.981 
12:35	54.2	54.2	54.2	77	47.1	1	3	68	0.00	29.978 
12:40	54.4	54.4	54.4	76	47.0	1	4	135	0.00	29.978 
12:45	54.5	54.5	54.5	77	47.4	1	2	135	0.00	29.978 
12:50	54.5	54.5	54.5	75	46.7	1	5	90	0.00	29.978 
12:55	54.5	54.5	54.5	76	47.1	1	5	90	0.00	29.976 
13:00	54.5	54.5	54.5	76	47.1	1	5	90	0.00	29.968 
13:05	54.5	54.5	54.5	77	47.4	1	2	90	0.00	29.963 
13:10	54.5	54.5	54.5	77	47.4	1	5	135	0.00	29.962 
13:15	54.5	54.5	54.5	77	47.4	1	4	112	0.00	29.961 
13:20	54.5	54.5	54.5	77	47.4	1	4	135	0.00	29.959 
13:25	54.4	54.4	54.4	78	47.7	1	6	90	0.00	29.957 
13:30	54.5	54.5	54.5	77	47.4	1	5	90	0.00	29.953 
13:35	54.5	54.5	54.5	79	48.1	1	3	68	0.00	29.951 
13:40	54.7	54.7	54.7	79	48.3	1	4	68	0.00	29.948 
13:45	54.5	54.5	54.5	79	48.1	2	4	90	0.00	29.946 
13:50	54.4	54.4	54.4	78	47.7	2	5	90	0.00	29.945 
13:55	54.4	54.4	54.4	79	48.0	2	4	68	0.00	29.948 
14:00	54.4	54.4	54.4	78	47.7	2	4	90	0.00	29.948 
14:05	54.1	54.1	54.1	79	47.7	2	4	90	0.00	29.948 
14:10	53.5	53.5	53.5	80	47.5	2	4	90	0.00	29.943 
14:15	53.3	53.3	53.3	82	47.9	2	7	90	0.00	29.938 
14:20	53.3	53.3	53.3	80	47.3	2	5	90	0.00	29.934 
14:25	53.5	53.5	53.5	80	47.5	1	4	135	0.00	29.935 
14:30	53.6	53.6	53.6	81	47.9	1	5	135	0.00	29.935 
14:35	53.6	53.6	53.6	80	47.6	1	3	90	0.00	29.933 
14:40	53.6	53.6	53.6	80	47.6	1	4	112	0.00	29.933 
14:45	53.5	53.5	53.5	79	47.1	2	4	90	0.00	29.935 
14:50	53.8	53.8	53.8	79	47.4	1	4	90	0.00	29.937 
14:55	53.6	53.6	53.6	78	46.9	1	4	112	0.00	29.939 
15:00	53.5	53.5	53.5	79	47.1	0	2	112	0.00	29.937 
15:05	53.5	53.5	53.5	79	47.1	1	3	112	0.00	29.937 
15:10	53.3	53.3	53.3	80	47.3	1	3	112	0.00	29.937 
15:15	53.5	53.5	53.5	80	47.5	1	3	158	0.00	29.934 
15:20	53.6	53.6	53.6	79	47.2	1	4	90	0.00	29.933 
15:25	53.8	53.8	53.8	79	47.4	1	3	90	0.00	29.929 
15:30	53.8	53.8	53.8	79	47.4	0	2	90	0.00	29.926 
15:35	53.8	53.8	53.8	78	47.1	1	3	135	0.00	29.927 
15:40	53.5	53.5	53.5	79	47.1	1	3	90	0.00	29.926 
15:45	53.2	53.2	53.2	80	47.2	1	4	90	0.00	29.923 
15:50	53.1	53.1	53.1	81	47.4	1	3	90	0.00	29.921 
15:55	52.8	52.8	52.8	82	47.5	1	3	90	0.00	29.919 
16:00	52.5	52.5	52.5	83	47.5	1	5	112	0.00	29.918 
16:05	52.2	52.2	52.2	83	47.2	0	3	112	0.00	29.920 
16:10	51.9	51.9	51.9	84	47.2	1	4	90	0.00	29.922 
16:15	51.7	51.7	51.7	85	47.3	0	3	112	0.00	29.920 
16:20	51.7	51.7	51.7	85	47.3	0	1	112	0.00	29.920 
16:25	51.6	51.6	51.6	86	47.5	0	1	112	0.00	29.920 
16:30	51.4	51.4	51.4	86	47.4	0	1	112	0.00	29.922 
16:35	51.3	51.3	51.3	86	47.3	0	1	112	0.00	29.915 
16:40	51.1	51.1	51.1	86	47.1	0	1	112	0.00	29.910 
16:45	51.0	51.0	51.0	87	47.3	0	1	112	0.00	29.908 
16:50	50.8	50.8	50.8	87	47.1	0	3	90	0.00	29.902 
16:55	50.8	50.8	50.8	87	47.1	0	2	90	0.00	29.898 
17:00	50.7	50.7	50.7	87	47.0	0	1	90	0.00	29.892 
17:05	50.5	50.5	50.5	88	47.1	0	1	90	0.00	29.891 
17:10	50.2	50.2	50.2	88	46.8	0	1	90	0.00	29.887 
17:15	50.1	50.1	50.1	88	46.7	0	1	90	0.00	29.883 
17:20	49.8	49.8	49.8	88	46.4	0	1	90	0.00	29.881 
17:25	49.6	49.6	49.6	89	46.5	0	1	90	0.00	29.881 
17:30	49.4	49.4	49.4	89	46.3	0	1	90	0.00	29.873 
17:35	49.2	49.2	49.2	90	46.4	0	1	90	0.00	29.871 
17:40	48.9	48.9	48.9	90	46.1	0	0	---	0.00	29.867 
17:45	48.6	48.6	48.6	90	45.8	0	0	---	0.00	29.866 
17:50	48.3	48.3	48.3	90	45.5	0	0	---	0.00	29.866 
17:55	47.9	47.9	47.9	90	45.1	0	0	---	0.00	29.866 
18:00	47.4	47.4	47.4	90	44.6	0	0	---	0.00	29.864 
18:05	47.0	47.0	47.0	90	44.2	0	0	---	0.00	29.866 
18:10	46.5	46.5	46.5	91	44.0	0	0	---	0.00	29.860 
18:15	46.4	46.4	46.4	92	44.2	0	0	---	0.00	29.860 
18:20	46.4	46.4	46.4	93	44.5	0	0	---	0.00	29.855 
18:25	46.5	46.5	46.5	93	44.6	0	0	---	0.00	29.852 
18:30	46.5	46.5	46.5	93	44.6	0	0	---	0.00	29.854 
18:35	46.4	46.4	46.4	93	44.5	0	0	---	0.00	29.856 
18:40	46.2	46.2	46.2	94	44.6	0	0	---	0.00	29.863 
18:45	46.1	46.1	46.1	94	44.5	0	0	---	0.00	29.856 
18:50	46.0	46.0	46.0	94	44.4	0	0	---	0.00	29.856 
18:55	45.8	45.8	45.8	94	44.2	0	0	---	0.00	29.857 
19:00	45.7	45.7	45.7	94	44.1	0	0	---	0.00	29.855 
19:05	45.8	45.8	45.8	95	44.4	0	0	---	0.00	29.853 
19:10	46.1	46.1	46.1	95	44.7	0	1	90	0.00	29.851 
19:15	46.7	46.7	46.7	95	45.3	0	1	90	0.00	29.849 
19:20	46.8	46.8	46.8	95	45.4	0	0	---	0.00	29.847 
19:25	47.0	47.0	47.0	95	45.6	0	1	90	0.00	29.848 
19:30	47.0	47.0	47.0	95	45.6	0	0	---	0.00	29.848 
19:35	47.0	47.0	47.0	95	45.6	0	1	90	0.00	29.842 
19:40	47.0	47.0	47.0	95	45.6	0	1	90	0.00	29.838 
19:45	47.0	47.0	47.0	95	45.6	0	1	90	0.00	29.836 
19:50	47.3	47.3	47.3	96	46.2	0	1	90	0.00	29.832 
19:55	47.6	47.6	47.6	96	46.5	0	1	90	0.00	29.827 
20:00	47.9	47.9	47.9	96	46.8	0	2	90	0.00	29.821 
20:05	48.0	48.0	48.0	96	46.9	0	1	90	0.00	29.818 
20:10	48.3	48.3	48.3	95	46.9	0	1	90	0.00	29.815 
20:15	48.5	48.5	48.5	95	47.1	0	3	135	0.00	29.811 
20:20	48.8	48.8	48.8	95	47.4	1	3	135	0.00	29.808 
20:25	49.1	49.1	49.1	94	47.4	1	4	112	0.00	29.809 
20:30	49.2	49.2	49.2	93	47.3	0	2	112	0.00	29.807 
20:35	49.4	49.4	49.4	92	47.2	0	1	135	0.00	29.803 
20:40	49.5	49.5	49.5	92	47.3	0	1	135	0.00	29.800 
20:45	49.5	49.5	49.5	91	47.0	0	2	135	0.00	29.799 
20:50	49.6	49.6	49.6	91	47.1	0	2	135	0.00	29.799 
20:55	49.8	49.8	49.8	91	47.3	0	3	112	0.00	29.803 
21:00	50.1	50.1	50.1	90	47.3	0	2	112	0.00	29.804 
21:05	50.2	50.2	50.2	90	47.4	0	2	158	0.00	29.802 
21:10	50.2	50.2	50.2	89	47.1	0	1	135	0.00	29.805 
21:15	50.2	50.2	50.2	89	47.1	0	3	248	0.00	29.800 
21:20	50.2	50.2	50.2	89	47.1	0	1	248	0.00	29.797 
21:25	50.4	50.4	50.4	89	47.3	0	2	248	0.00	29.790 
21:30	50.5	50.5	50.5	88	47.1	1	3	112	0.00	29.786 
21:35	50.5	50.5	50.5	88	47.1	1	2	112	0.00	29.779 
21:40	50.7	50.7	50.7	88	47.3	1	5	112	0.00	29.774 
21:45	50.7	50.7	50.7	88	47.3	1	3	135	0.00	29.762 
21:50	50.7	50.7	50.7	88	47.3	2	7	68	0.00	29.752 
21:55	50.7	50.7	50.7	88	47.3	2	6	112	0.00	29.741 
22:00	50.7	50.7	50.7	88	47.3	1	3	112	0.00	29.731 
22:05	50.7	50.7	50.7	88	47.3	1	3	112	0.00	29.729 
22:10	50.7	50.7	50.7	89	47.6	1	5	135	0.00	29.730 
22:15	50.7	50.7	50.7	89	47.6	1	5	135	0.00	29.723 
22:20	50.7	50.7	50.7	89	47.6	2	6	90	0.00	29.719 
22:25	50.8	50.8	50.8	89	47.7	1	3	248	0.00	29.772 
22:30	51.0	51.0	51.0	89	47.9	1	3	248	0.00	29.758 
22:35	51.1	51.1	51.1	89	48.0	1	5	248	0.00	29.757 
22:40	51.3	51.3	51.3	89	48.2	1	7	248	0.00	29.756 
22:45	51.3	51.3	51.3	89	48.2	1	4	248	0.00	29.753 
22:50	51.3	51.3	51.3	89	48.2	1	5	248	0.00	29.757 
22:55	51.4	51.4	51.4	89	48.3	1	3	248	0.00	29.756 
23:00	51.6	51.6	51.6	90	48.8	3	6	248	0.00	29.756 
23:05	51.7	51.7	51.7	90	48.9	2	4	248	0.00	29.749 
23:10	51.9	51.9	51.9	90	49.1	2	5	248	0.00	29.752 
23:15	52.0	52.0	52.0	90	49.2	2	9	225	0.00	29.754 
23:20	52.0	52.0	52.0	90	49.2	2	6	270	0.00	29.752 
23:25	52.2	52.2	52.2	90	49.4	2	7	248	0.00	29.751 
23:30	52.2	52.2	52.2	90	49.4	2	6	270	0.00	29.744 
23:35	52.2	52.2	52.2	90	49.4	1	6	248	0.00	29.740 
23:40	52.2	52.2	52.2	90	49.4	1	4	90	0.00	29.721 
23:45	52.2	52.2	52.2	91	49.7	1	4	248	0.00	29.731 
23:50	52.2	52.2	52.2	91	49.7	1	5	90	0.00	29.725 
23:55	52.2	52.2	52.2	91	49.7	1	4	248	0.00	29.726 

CoCoRaHS
IN-AL-39
A2 Web Hosting
Creative Commons License
GoDaddy
Look for:

loaded 2017-12-10 21:35:56 • last modified 2010-11-18 10:43:29
Privacy PolicyDisclaimer
• wx.awcolley.com is powered by PmWiki v.2002016 •
• all content (unless otherwise noted) © 2017 A W Colley